createdAt,value
2023-02-02T04:41:16.169Z,100155.44
2023-02-02T04:44:19.568Z,100155.44
2023-02-02T04:47:22.531Z,100159.94
2023-02-02T04:50:25.537Z,100160.97
2023-02-02T04:53:29.219Z,100158.31
2023-02-02T04:56:32.152Z,100156.53
2023-02-02T04:59:35.209Z,100171.12
2023-02-02T05:02:39.118Z,100172.75
2023-02-02T05:05:41.775Z,100172.59
2023-02-02T05:08:44.902Z,100176.22
2023-02-02T05:11:47.544Z,100185.84
2023-02-02T05:14:50.586Z,100191.75
2023-02-02T05:17:53.299Z,100195.97
2023-02-02T05:20:56.380Z,100205.69
2023-02-02T05:23:59.759Z,100223.91
2023-02-02T05:27:02.688Z,100221.31
2023-02-02T05:30:06.229Z,100237.03
2023-02-02T05:33:09.315Z,100250.03
2023-02-02T05:36:12.145Z,100252.81
2023-02-02T05:39:15.391Z,100259.50
2023-02-02T05:42:18.019Z,100264.94
2023-02-02T05:45:21.061Z,100264.94
2023-02-02T05:48:24.032Z,100275.44
2023-02-02T05:51:37.964Z,100269.50
2023-02-02T05:54:40.617Z,100265.91
2023-02-02T05:57:44.203Z,100267.87
2023-02-02T06:00:46.904Z,100274.75
2023-02-02T06:03:50.025Z,100258.47
2023-02-02T06:06:52.796Z,100260.66
2023-02-02T06:09:55.758Z,100256.25
2023-02-02T06:12:58.584Z,100251.38
2023-02-02T06:16:01.508Z,100251.47
2023-02-02T06:19:05.091Z,100258.09
2023-02-02T06:22:08.180Z,100251.44
2023-02-02T06:25:10.746Z,100261.63
2023-02-02T06:28:13.629Z,100263.19
2023-02-02T06:31:19.463Z,100257.09
2023-02-02T06:34:24.940Z,100258.78
2023-02-02T06:37:29.650Z,100246.66
2023-02-02T06:40:33.842Z,100229.03
2023-02-02T06:43:36.534Z,100237.50
2023-02-02T06:46:39.540Z,100237.44
2023-02-02T06:49:42.828Z,100240.81
2023-02-02T06:52:49.870Z,100242.44
2023-02-02T06:55:57.138Z,100235.25
2023-02-02T06:59:00.132Z,100242.66
2023-02-02T07:02:03.197Z,100246.50
2023-02-02T07:05:06.456Z,100244.44
2023-02-02T07:08:09.204Z,100254.63
2023-02-02T07:11:16.370Z,100264.78
2023-02-02T07:14:19.444Z,100274.19
2023-02-02T07:17:22.325Z,100278.38
2023-02-02T07:20:25.781Z,100292.88
2023-02-02T07:23:29.904Z,100303.91
2023-02-02T07:26:35.250Z,100308.84
2023-02-02T07:29:38.287Z,100321.63
2023-02-02T07:32:46.210Z,100330.88
2023-02-02T07:35:51.969Z,100339.22
2023-02-02T07:38:54.760Z,100340.66
2023-02-02T07:41:57.774Z,100348.28
2023-02-02T07:45:27.333Z,100342.75
2023-02-02T07:48:24.271Z,100354.22
2023-02-02T07:51:26.920Z,100348.34
2023-02-02T07:54:31.777Z,100357.22
2023-02-02T07:57:34.477Z,100349.91
2023-02-02T08:00:37.674Z,100345.03
2023-02-02T08:03:42.908Z,100346.25
2023-02-02T08:06:45.572Z,100334.75
2023-02-02T08:09:48.696Z,100329.38
2023-02-02T08:12:51.388Z,100327.63
2023-02-02T08:15:57.863Z,100339.47
2023-02-02T08:19:01.020Z,100322.37
2023-02-02T08:22:04.190Z,100344.53
2023-02-02T08:25:07.386Z,100344.25
2023-02-02T08:28:10.345Z,100349.19
2023-02-02T08:31:20.102Z,100337.00
2023-02-02T08:34:25.177Z,100340.19
2023-02-02T08:40:31.049Z,100324.72
2023-02-02T08:43:34.319Z,100328.34
2023-02-02T08:46:37.602Z,100327.28
2023-02-02T08:49:42.439Z,100321.53
2023-02-02T08:52:45.454Z,100320.81
2023-02-02T08:55:48.701Z,100330.09
2023-02-02T08:58:55.476Z,100339.13
2023-02-02T09:01:58.281Z,100349.22
2023-02-02T09:05:01.781Z,100349.59
2023-02-02T09:08:04.665Z,100344.16
2023-02-02T09:11:12.032Z,100357.22
2023-02-02T09:14:15.162Z,100355.47
2023-02-02T09:17:18.325Z,100361.28
2023-02-02T09:20:21.181Z,100349.78
2023-02-02T09:23:23.982Z,100371.97
2023-02-02T09:26:28.983Z,100371.50
2023-02-02T09:29:31.967Z,100376.41
2023-02-02T09:32:34.800Z,100370.41
2023-02-02T09:35:38.073Z,100372.78
2023-02-02T09:38:41.542Z,100368.19
2023-02-02T09:42:06.055Z,100360.66
2023-02-02T09:45:18.940Z,100358.25
2023-02-02T09:48:46.717Z,100356.88
2023-02-02T09:51:56.954Z,100353.47
2023-02-02T09:55:12.137Z,100351.56
2023-02-02T09:58:25.042Z,100365.72
2023-02-02T10:01:36.489Z,100365.81
2023-02-02T10:04:43.837Z,100377.38
2023-02-02T10:07:52.086Z,100372.81
2023-02-02T10:10:55.197Z,100381.75
2023-02-02T10:14:02.963Z,100387.25
2023-02-02T10:17:37.605Z,100378.03
2023-02-02T10:20:45.814Z,100369.34
2023-02-02T10:23:49.078Z,100387.38
2023-02-02T10:27:09.899Z,100358.72
2023-02-02T10:30:19.510Z,100362.41
2023-02-02T10:33:25.183Z,100359.44
2023-02-02T10:36:46.408Z,100378.59
2023-02-02T10:40:27.313Z,100365.56
2023-02-02T10:43:47.686Z,100357.78
2023-02-02T10:46:54.438Z,100347.72
2023-02-02T10:50:12.293Z,100335.16
2023-02-02T10:53:16.205Z,100338.22
2023-02-02T10:56:37.546Z,100335.78
2023-02-02T11:00:26.997Z,100329.94
2023-02-02T11:03:32.617Z,100323.91
2023-02-02T11:06:51.523Z,100331.66
2023-02-02T11:09:54.664Z,100342.06
2023-02-02T11:13:02.126Z,100331.66
2023-02-02T11:16:14.443Z,100343.44
2023-02-02T11:19:17.310Z,100345.66
2023-02-02T11:22:29.092Z,100342.91
2023-02-02T11:25:36.293Z,100345.44
2023-02-02T11:28:41.100Z,100350.88
2023-02-02T11:31:44.938Z,100346.03
2023-02-02T11:34:48.323Z,100351.66
2023-02-02T11:37:58.818Z,100358.28
2023-02-02T11:41:11.000Z,100368.87
2023-02-02T11:44:25.229Z,100363.47
2023-02-02T11:47:31.763Z,100373.81
2023-02-02T11:50:35.936Z,100385.25
2023-02-02T11:53:49.058Z,100389.91
2023-02-02T11:56:55.504Z,100392.59
2023-02-02T12:00:26.982Z,100395.28
2023-02-02T12:03:48.905Z,100395.75
2023-02-02T12:06:51.802Z,100394.00
2023-02-02T12:09:58.110Z,100377.47
2023-02-02T12:13:07.747Z,100392.72
2023-02-02T12:16:31.984Z,100385.09
2023-02-02T12:19:51.129Z,100385.81
2023-02-02T12:23:06.224Z,100388.69
2023-02-02T12:26:16.914Z,100387.50
2023-02-02T12:29:45.692Z,100385.53
2023-02-02T12:33:23.949Z,100383.78
2023-02-02T12:36:47.671Z,100386.91
2023-02-02T12:40:12.363Z,100389.09
2023-02-02T12:43:27.417Z,100390.59
2023-02-02T12:47:22.714Z,100389.72
2023-02-02T12:50:37.120Z,100380.97
2023-02-02T12:54:34.425Z,100375.72
2023-02-02T12:57:47.619Z,100378.88
2023-02-02T13:01:11.689Z,100385.63
2023-02-02T13:08:12.783Z,100387.38
2023-02-02T13:11:32.764Z,100389.16
2023-02-02T13:14:38.198Z,100389.84
2023-02-02T13:17:46.694Z,100391.88
2023-02-02T13:21:03.227Z,100403.91
2023-02-02T13:24:12.388Z,100396.22
2023-02-02T13:27:19.428Z,100407.38
2023-02-02T13:30:35.180Z,100408.69
2023-02-02T13:33:39.147Z,100405.06
2023-02-02T13:36:46.050Z,100397.91
2023-02-02T13:39:56.641Z,100387.88
2023-02-02T13:43:12.613Z,100402.53
2023-02-02T13:46:20.248Z,100403.53
2023-02-02T13:49:34.209Z,100412.28
2023-02-02T13:53:00.137Z,100403.50
2023-02-02T13:56:26.518Z,100414.38
2023-02-02T13:59:35.529Z,100397.22
2023-02-02T14:02:49.540Z,100410.53
2023-02-02T14:06:19.949Z,100400.06
2023-02-02T14:09:32.813Z,100417.88
2023-02-02T14:12:36.509Z,100423.50
2023-02-02T14:15:43.862Z,100414.19
2023-02-02T14:18:50.135Z,100405.50
2023-02-02T14:22:02.167Z,100413.97
2023-02-02T14:25:29.938Z,100402.34
2023-02-02T14:28:44.960Z,100399.59
2023-02-02T14:31:53.716Z,100414.34
2023-02-02T14:35:24.693Z,100404.97
2023-02-02T14:38:52.924Z,100416.44
2023-02-02T14:42:49.617Z,100420.53
2023-02-02T14:46:32.597Z,100418.75
2023-02-02T14:49:35.798Z,100407.13
2023-02-02T14:52:42.359Z,100425.97
2023-02-02T14:56:06.330Z,100417.66
2023-02-02T14:59:20.107Z,100427.84
2023-02-02T15:02:32.698Z,100428.16
2023-02-02T15:05:39.103Z,100436.25
2023-02-02T15:08:41.875Z,100422.03
2023-02-02T15:12:02.883Z,100434.56
2023-02-02T15:15:25.513Z,100442.66
2023-02-02T15:18:33.476Z,100433.81
2023-02-02T15:21:40.599Z,100452.94
2023-02-02T15:24:46.005Z,100445.00
2023-02-02T15:28:25.963Z,100446.13
2023-02-02T15:31:52.259Z,100453.38
2023-02-02T15:35:01.688Z,100468.88
2023-02-02T15:38:08.187Z,100481.28
2023-02-02T15:41:18.698Z,100470.84
2023-02-02T15:44:27.885Z,100491.34
2023-02-02T15:47:37.932Z,100494.87
2023-02-02T15:50:46.447Z,100506.50
2023-02-02T15:53:51.832Z,100501.56
2023-02-02T15:56:56.841Z,100511.69
2023-02-02T16:00:02.656Z,100507.56
2023-02-02T16:03:19.803Z,100496.22
2023-02-02T16:06:23.113Z,100505.97
2023-02-02T16:09:28.756Z,100514.72
2023-02-02T16:12:32.369Z,100521.38
2023-02-02T16:15:35.226Z,100518.19
2023-02-02T16:18:38.178Z,100507.75
2023-02-02T16:21:46.661Z,100525.13
2023-02-02T16:24:54.073Z,100523.19
2023-02-02T16:28:00.568Z,100541.25
